Racecast

Dayna Dec

Temperance Bedford (MI) · 12 · SECMI D1MONROE · Compare head to head

Athlete rating 107.5 2019 XC season
Best race 117.2 XC
Races 87
Seasons 6 2014 — 2019

RankedNation #51208·MI #2482·MI D1 #1446·SEC #139·Team #65 ?

Rating scale ?
Speed rating — all races

Cross Country

XC speed rating

2019 XC 103.0

Temperance Bedford (MI) · Grade 12

Date Meet Event Result Place Rating Difficulty PR/SR Flags
2019-10-26 Lake Erie Metro Park OFFICIAL 5000m 23:22.7 45th · 8th on team 107.1 +0.007 CSR
2019-10-17 Hudson Mills Metropark - OFFICIAL 5000m 22:46.2 39th · 8th on team 108.7 -0.006 SR CSR RSR
2019-10-12 Munson Park 5000m 23:56.2 15th · 4th on team 104.7 +0.007 CSR
2019-10-05 Portage West MS 5000m 22:54.1 88th · 7th on team 107.8 -0.003 SR CSR RSR
2019-09-28 Lake Erie Metro Park OFFICIAL 5000m 25:01.9 20th · 8th on team 99.4 +0.007 CSR
2019-09-10 Hudson Mills Metropark - OFFICIAL 5000m 24:53.6 22nd · 2nd on team 98.8 -0.006 SR CSR
2019-09-07 Hedges Boyer Park 5000m 25:31.6 173rd · 7th on team 97.2 -0.003 CSR
2019-08-24 Defiance HS 5000m 24:55.1 81st · 16th on team 100.0 +0.003 ★CR SR CSR RSR

2018 XC 104.2

Temperance Bedford (MI) · Grade 11

Date Meet Event Result Place Rating Difficulty PR/SR Flags
2018-10-27 Lake Erie Metro Park OFFICIAL 5000m 23:05.2 36th · 7th on team 108.2 +0.007 ★CR CSR RSR
2018-10-18 Hudson Mills Metropark - OFFICIAL 5000m 22:46.2 47th · 8th on team 107.9 -0.006 PR CR SR CSR RSR
2018-10-13 Munson Park 5000m 23:27.3 21st · 9th on team 105.9 +0.007 ★CR SR CSR RSR
2018-10-09 Indian Creek OFFICIAL 5000m 24:24 8th · 8th on team 103.8 +0.004 ★CR CSR
2018-09-29 Lake Erie Metro Park OFFICIAL 5000m 23:37.3 33rd · 7th on team 105.7 +0.007 SR CSR RSR
2018-09-06 Willow Metropark OFFICIAL 5000m 26:05.6 78th · 8th on team 94.1 -0.003 ★CR SR CSR RSR

2017 XC 101.1

Temperance Bedford (MI) · Grade 10

Date Meet Event Result Place Rating Difficulty PR/SR Flags
2017-10-28 Lake Erie Metro Park OFFICIAL 5000m 23:43.2 41st · 9th on team 104.9 +0.007
2017-10-10 Indian Creek OFFICIAL 5000m 24:26.8 14th · 12th on team 102.0 +0.004 CR CSR
2017-10-07 Portage West MS 5000m 26:26.2 280th · 10th on team 94.5 -0.003 CSR
2017-09-30 Lake Erie Metro Park OFFICIAL 5000m 23:22.6 10th · 7th on team 105.9 +0.007 CR SR CSR RSR
2017-09-22 Ella Sharp Park OFFICIAL 5000m 24:47.5 70th · 8th on team 101.9 -0.001 ★CR CSR RSR
2017-09-12 Hudson Mills Metropark - OFFICIAL 5000m 24:30.3 54th · 8th on team 100.6 -0.006 CSR
2017-09-09 Hedges Boyer Park 5000m 24:19.9 143rd · 3rd on team 101.6 -0.003 ★CR SR CSR RSR
2017-08-26 Boy Scout Camp Lakota 5000m 25:42.8 122nd · 19th on team 97.5 +0.014 ★CR SR CSR RSR

2016 XC 100.2

Temperance Bedford (MI) · Grade 9

Date Meet Event Result Place Rating Difficulty PR/SR Flags
2016-10-20 Hudson Mills Metropark - OFFICIAL 5000m 23:01.1 37th · 4th on team 106.7 -0.006 CR CSR
2016-10-15 Hudson Mills Metropark - OFFICIAL 5000m 23:05.1 25th · 6th on team 107.4 -0.006 CR CSR
2016-10-08 Portage West MS 5000m 22:49 116th · 4th on team 108.3 -0.003 PR ★CR SR CSR RSR
2016-10-01 Pearson's Metro Park 5000m 23:17.8 12th · 3rd on team 106.2 +0.001 PR ★CR SR CSR RSR
2016-09-27 Pioneer HS 5000m 24:57.9 43rd · 7th on team 101.9 +0.018 PR ★CR SR CSR RSR
2016-09-17 Springfield Oaks County Park OFFICIAL 5000m 25:36 68th · 4th on team 101.3 +0.019 ★CR CSR RSR
2016-09-13 Heritage Park (Adrian) OFFICIAL 5000m 25:32.1 45th · 6th on team 100.7 +0.035 PR ★CR SR CSR RSR
2016-09-10 Hedges Boyer Park 5000m 27:53.6 178th · 7th on team 89.1 -0.003 CR CSR
2016-08-27 Boy Scout Camp Lakota 5000m 27:27.9 120th · 15th on team 91.3 +0.014 PR CR SR CSR RSR
2016-08-25 Heritage Park (Adrian) OFFICIAL 5000m 28:59.3 17th · 11th on team 88.7 +0.035 PR CR SR CSR RSR

2015 XC 109.4

Temperance Bedford (MI) · Grade 8

Date Meet Event Result Place Rating Difficulty PR/SR Flags
2015-10-24 Hudson Mills Metropark - OFFICIAL 2414m 14:36.6 99th · 7th on team 85.2 -0.036 ★PR ★CR SR CSR
2015-10-17 Munson Park 3200m 14:27.1 10th · 7th on team 115.0 +0.000
2015-10-14 Munson Park 3200m 14:23.4 28th · 7th on team 114.7 +0.000 ★PR ★CR SR CSR
2015-09-30 Hudson Mills Metropark - OFFICIAL 3200m 14:32.6 30th · 6th on team 117.2 +0.020 PR ★CR ★R SR CSR RSR
2015-09-26 Sterling State Park 3218m 15:03 25th · 7th on team 114.0 +0.019 ★PR ★CR SR CSR
2015-09-16 Mill Pond Park 3621m 17:31.3 35th · 8th on team 116.5 +0.073 ★PR ★CR R SR CSR RSR
2015-09-12 Hedges Boyer Park 3200m 16:14 20th · 10th on team 103.5 +0.015 ★CR SR CSR RSR

2014 XC 95.3

Temperance Bedford (MI) · Grade 7

Date Meet Event Result Place Rating Difficulty PR/SR Flags
2014-10-11 Munson Park 3200m 14:33.6 15th · 3rd on team 114.3 +0.000 PR CR R SR CSR RSR
2014-10-04 Fostoria HS 3200m 16:35.9 113th · 8th on team 103.5 +0.031 PR ★CR R SR CSR RSR
2014-09-27 Pearson's Metro Park 3200m 17:42.2 122nd · 8th on team 94.9 -0.005 PR ★CR R SR CSR RSR
2014-09-24 Hudson Mills Metropark - OFFICIAL 2735m 17:34.7 83rd · 9th on team 82.4 ★PR ★CR SR CSR
2014-09-20 Sterling State Park 3218m 18:56.2 65th · 9th on team 90.7 +0.019 PR CR R SR CSR RSR
2014-09-06 Hedges Boyer Park 3200m 19:27.6 319th · 2nd on team 86.2 +0.015 PR CR R SR CSR RSR

Track & Field

TF speed rating

2019 TF 103.7

Temperance Bedford (MI) · Grade 11

Date Meet Event Result Place Rating Difficulty PR/SR Flags
2019-05-15 22nd River Rat Girls JV Invite 1600m 6:23.5 18th · 8th on team 108.9 -0.024 SR RSR
2019-05-15 22nd River Rat Girls JV Invite 800m 3:05.04 19th · 7th on team 100.8 -0.024
2019-04-23 SEC Red Division - Bedford vs Saline 1600m 6:27.77 10th · 5th on team 108.2 -0.026 SR RSR
2019-04-23 SEC Red Division - Bedford vs Saline 800m 3:00.7 16th · 4th on team 103.7 -0.026 SR
2019-04-09 SEC-R: Bedford @ Pioneer 1600m 7:15.52 11th · 8th on team 96.8 -0.017 SR RSR

2018 TF 99.9

Temperance Bedford (MI) · Grade 10

Date Meet Event Result Place Rating Difficulty PR/SR Flags
2018-05-17 21st River Rat Girls JV Invitational 800m 3:11.33 12th · 3rd on team 97.3 -0.024
2018-05-17 21st River Rat Girls JV Invitational 1600m 6:44.06 23rd · 3rd on team 103.5 -0.024
2018-05-07 SEC Red: Huron @ Bedford 1600m 6:34 5th · 5th on team 105.8 -0.026 SR RSR
2018-05-07 SEC Red: Huron @ Bedford 800m 3:04 7th · 7th on team 100.9 -0.026
2018-05-01 SEC Red: Bedford & Skyline @ Monroe 1600m 7:11.27 14th · 5th on team 97.1 -0.022 SR
2018-04-24 Saline/Bedford Dual 800m 3:02.16 5th · 1st on team 101.3 -0.033 SR RSR
2018-04-10 SEC Red Division - Pioneer @ Bedford hj 4'0 -0.026
2018-04-10 SEC Red Division - Pioneer @ Bedford 1600m 7:25 14th · 5th on team 93.4 -0.026 SR RSR

2017 TF 101.9

Temperance Bedford (MI) · Grade 9

Date Meet Event Result Place Rating Difficulty PR/SR Flags
2017-05-25 Beck Freshman Invitational 1600m 6:23 6th · 4th on team 110.0 -0.013 ★PR SR RSR
2017-05-17 River Rat GIRLS JV Invite 1600m 6:45.31 27th · 5th on team 103.5 -0.024 PR SR
2017-05-17 River Rat GIRLS JV Invite 3200m 15:46.35 10th · 4th on team 96.5 -0.024 ★PR SR
2017-05-17 River Rat GIRLS JV Invite 800m 3:06.31 23rd · 3rd on team 100.1 -0.024
2017-04-25 SEC Red: Bedford @ Skyline hj 4-00.00 -0.021
2017-04-25 SEC Red: Bedford @ Skyline 1600m 6:52.66 14th · 9th on team 101.0 -0.021 PR SR
2017-04-25 SEC Red: Bedford @ Skyline 800m 3:11.05 12th · 8th on team 97.1 -0.021
2017-04-08 Whitmer Golden W Invitational hj 4-02.00 -0.034
2017-03-28 SEC Red: Bedford @ Pioneer 800m 2:57.96 9th · 3rd on team 104.9 -0.017 ★PR SR RSR

2016 TF

Temperance Bedford (MI) · Grade 8

Date Meet Event Result Place Rating Difficulty PR/SR Flags
2016-05-18 Saline Hornet MS Relays hj 4-00.00 -0.033
2016-05-17 Bedford @ Chelsea hj 4-02.00 -0.022
2016-05-12 Bedford at Lincoln 70m 11.74 6th · 6th on team -0.021 ★PR SR
2016-05-09 Dexter Mill Creek @ Bedford hj 4'6 -0.026
2016-05-09 Dexter Mill Creek @ Bedford 100m 16.12 9th · 9th on team -0.026
2016-05-05 Bedford MS @ Saline MS hj 4'0 -0.030
2016-05-05 Bedford MS @ Saline MS 100m 15.5 14th · 6th on team -0.030 ★PR SR
2016-05-02 Bedford at Ypsilanti 100m 16.45 8th · 8th on team -0.021 SR
2016-04-28 Monroe @ Bedford hj 3'8 -0.026
2016-04-28 Monroe @ Bedford 100m 17.13 6th · 6th on team -0.026 SR
2016-04-25 Tecumseh @ Bedford hj 3'10 -0.026
2016-04-25 Tecumseh @ Bedford 400m 1:18 8th · 8th on team -0.026 SR

2015 TF 93.5

Temperance Bedford (MI) · Grade 7

Date Meet Event Result Place Rating Difficulty PR/SR Flags
2015-05-14 Bedford vs Lincoln MS 100m 18.54 3rd · 3rd on team -0.026
2015-05-07 Bedford vs Saline vs Ypsilanti MS shot 17'4 -0.026
2015-05-07 Bedford vs Saline vs Ypsilanti MS 400m 1:17.14 5th · 5th on team -0.026 ★PR SR
2015-04-23 Bedford @Adrian MS shot 13'3 -0.018
2015-04-16 Time Trials MS Girls 200m 40.24 42nd · 42nd on team -0.026 ★PR SR
2015-04-16 Time Trials MS Girls 400m 1:26.14 11th · 11th on team -0.026 PR SR
2015-04-16 Time Trials MS Girls 800m 3:36 17th · 17th on team 93.5 -0.026 PR SR RSR
2015-04-16 Time Trials MS Girls 100m 16.24 13th · 13th on team -0.026 PR SR